Terminal Aerodrome Forecast
Issued by NWS

Home | Current Version | Previous Version | Text Only | Print | Product List | Glossary On
Versions: 1 2 3 4 5 6 7 8 9 10 11 12 13 14 15 16 17 18 19 20 21
000
FTUS43 KGRR 201140
TAFBTL
TAF
KBTL 201140Z 2012/2112 23004KT 4SM BR OVC015
      TEMPO 2012/2014 3SM BR BKN005
     FM201430 17004KT 5SM BR BKN025
     FM201530 19005KT P6SM SCT035
     FM210500 17004KT 4SM BR BKN250=

USA.gov is the U.S. government's official web portal to all federal, state and local government web resources and services.